Time;durP1;ratioP1;P1;durP2;ratioP2;P2;SDS_P1;SDS_P2;PMS_P1;PMS_P2;Temp;Humidity;BMP_temperature;BMP_pressure;BME280_temperature;BME280_humidity;BME280_pressure;Samples;Min_cycle;Max_cycle;Signal;HPM_P1;HPM_P2
2022/08/08 00:00:42;;;;;;;6.13;3.80;;;18.10;24.10;;;;;;5032006;28;21000;-61
2022/08/08 00:03:18;;;;;;;5.53;3.80;;;18.10;24.20;;;;;;5026923;28;20486;-61
2022/08/08 00:05:53;;;;;;;6.50;4.77;;;18.10;24.30;;;;;;5035777;28;20458;-61
2022/08/08 00:08:26;;;;;;;6.30;3.83;;;18.10;24.50;;;;;;5031746;28;20580;-62
2022/08/08 00:10:59;;;;;;;6.03;4.00;;;18.00;24.60;;;;;;5023159;28;20455;-62
2022/08/08 00:13:32;;;;;;;6.20;3.57;;;18.00;25.20;;;;;;5034204;28;20723;-62
2022/08/08 00:16:06;;;;;;;6.90;3.97;;;18.00;24.90;;;;;;5032386;28;20470;-61
2022/08/08 00:18:41;;;;;;;7.57;4.03;;;18.00;24.80;;;;;;5040757;28;20459;-61
2022/08/08 00:21:14;;;;;;;6.40;3.97;;;18.00;24.60;;;;;;5026021;28;20461;-61
2022/08/08 00:23:45;;;;;;;5.93;3.80;;;18.00;24.60;;;;;;5035604;28;20481;-61
2022/08/08 00:26:18;;;;;;;5.90;4.00;;;17.90;24.90;;;;;;5036140;28;20457;-61
2022/08/08 00:28:52;;;;;;;6.70;4.60;;;17.90;25.00;;;;;;5036443;28;20489;-61
2022/08/08 00:31:24;;;;;;;5.67;3.80;;;17.90;24.90;;;;;;5028993;28;20474;-62
2022/08/08 00:36:49;;;;;;;5.00;3.43;;;17.80;24.40;;;;;;5020337;28;20985;-61
2022/08/08 00:39:24;;;;;;;6.80;3.97;;;17.80;24.40;;;;;;5027288;28;20451;-61
2022/08/08 00:42:32;;;;;;;7.40;3.80;;;17.80;24.50;;;;;;5027588;28;20477;-62
2022/08/08 00:45:26;;;;;;;6.73;4.17;;;17.80;24.70;;;;;;5026505;28;20978;-61
2022/08/08 00:48:50;;;;;;;6.53;3.37;;;17.80;24.80;;;;;;5032258;28;20474;-61
2022/08/08 00:51:41;;;;;;;6.67;3.90;;;17.70;24.50;;;;;;5029729;28;20661;-61
2022/08/08 00:54:52;;;;;;;6.30;3.43;;;17.70;24.50;;;;;;5026249;28;21001;-61
2022/08/08 00:57:54;;;;;;;5.40;3.60;;;17.70;24.60;;;;;;5028969;28;20463;-61
2022/08/08 01:00:22;;;;;;;6.50;3.83;;;17.60;25.00;;;;;;5005620;28;21186;-61
2022/08/08 01:03:24;;;;;;;8.23;3.50;;;17.60;25.00;;;;;;5034324;28;20477;-62
2022/08/08 01:06:30;;;;;;;6.53;4.73;;;17.60;24.90;;;;;;5036413;28;20469;-61
2022/08/08 01:09:31;;;;;;;8.50;5.10;;;17.60;25.20;;;;;;5030987;28;20844;-61
2022/08/08 01:12:40;;;;;;;6.30;4.30;;;17.50;25.50;;;;;;5024963;28;20492;-63
2022/08/08 01:15:43;;;;;;;9.23;4.90;;;17.50;25.30;;;;;;5022605;28;20816;-63
2022/08/08 01:18:49;;;;;;;9.13;4.73;;;17.40;25.50;;;;;;5016600;28;20457;-64
2022/08/08 01:21:40;;;;;;;7.00;4.80;;;17.40;25.80;;;;;;5027106;28;20455;-65
2022/08/08 01:24:45;;;;;;;6.43;4.30;;;17.30;25.80;;;;;;5006354;28;20862;-64
2022/08/08 01:27:56;;;;;;;8.20;4.70;;;17.30;26.10;;;;;;4971356;28;20976;-63
2022/08/08 01:31:05;;;;;;;7.93;5.10;;;17.30;26.20;;;;;;5031864;28;20804;-64
2022/08/08 01:34:07;;;;;;;8.77;5.80;;;17.30;26.20;;;;;;5029626;28;20486;-65
2022/08/08 01:37:31;;;;;;;6.60;4.20;;;17.20;26.20;;;;;;5036228;28;20462;-63
2022/08/08 01:40:11;;;;;;;6.60;4.13;;;17.20;26.60;;;;;;4946672;28;20473;-63
2022/08/08 01:42:48;;;;;;;7.97;4.30;;;17.20;26.60;;;;;;4948843;28;21107;-64
2022/08/08 01:45:33;;;;;;;8.10;5.30;;;17.10;26.60;;;;;;5000154;28;20458;-64
2022/08/08 01:48:06;;;;;;;9.87;5.27;;;17.10;26.50;;;;;;5036186;28;20535;-62
2022/08/08 01:50:52;;;;;;;8.37;5.27;;;17.10;26.20;;;;;;5033041;28;20466;-62
2022/08/08 01:53:34;;;;;;;6.10;4.60;;;17.10;26.20;;;;;;5026986;28;21017;-65
2022/08/08 01:56:09;;;;;;;6.83;4.77;;;17.10;26.10;;;;;;5024475;28;20492;-63
2022/08/08 01:58:44;;;;;;;6.63;4.77;;;17.00;26.40;;;;;;5041678;28;20454;-63
2022/08/08 02:01:19;;;;;;;9.07;5.90;;;17.00;26.40;;;;;;5034089;28;20993;-63
2022/08/08 02:04:02;;;;;;;10.10;6.07;;;17.00;26.70;;;;;;5037306;28;20458;-63
2022/08/08 02:06:56;;;;;;;8.73;5.73;;;16.90;27.30;;;;;;5032934;28;20462;-64
2022/08/08 02:09:36;;;;;;;8.70;4.97;;;16.90;27.20;;;;;;5037950;28;20833;-63
2022/08/08 02:12:10;;;;;;;7.07;5.33;;;16.80;27.50;;;;;;5024555;28;20517;-62
2022/08/08 02:14:41;;;;;;;7.90;5.33;;;16.80;27.40;;;;;;5035876;28;21016;-63
2022/08/08 02:17:15;;;;;;;7.83;4.77;;;16.80;27.60;;;;;;5031927;28;20457;-62
2022/08/08 02:19:49;;;;;;;7.80;5.60;;;16.80;27.50;;;;;;5035528;28;20462;-62
2022/08/08 02:22:30;;;;;;;7.27;4.70;;;16.70;27.70;;;;;;5042216;28;20823;-63
2022/08/08 02:25:06;;;;;;;7.73;6.10;;;16.70;27.70;;;;;;5032143;28;20462;-63
2022/08/08 02:27:39;;;;;;;8.50;5.47;;;16.60;27.90;;;;;;5035283;28;20461;-63
2022/08/08 02:30:10;;;;;;;7.20;4.90;;;16.60;27.70;;;;;;5025930;28;20503;-63
2022/08/08 02:33:05;;;;;;;7.30;4.93;;;16.60;27.70;;;;;;5029067;28;20652;-63
2022/08/08 02:36:00;;;;;;;6.40;5.23;;;16.60;28.20;;;;;;5024476;28;20471;-63
2022/08/08 02:38:56;;;;;;;7.33;5.77;;;16.50;28.10;;;;;;5035812;28;20460;-63
2022/08/08 02:42:05;;;;;;;7.70;5.97;;;16.60;28.10;;;;;;5027161;28;20459;-63
2022/08/08 02:45:12;;;;;;;9.63;5.10;;;16.50;28.10;;;;;;5021102;28;20983;-63
2022/08/08 02:48:18;;;;;;;7.53;5.63;;;16.50;28.20;;;;;;5034164;28;20511;-63
2022/08/08 02:51:42;;;;;;;7.90;5.80;;;16.50;28.40;;;;;;5013806;28;20464;-63
2022/08/08 02:54:48;;;;;;;7.20;5.20;;;16.40;28.60;;;;;;4944269;28;20462;-64
2022/08/08 02:57:50;;;;;;;8.30;5.70;;;16.40;28.60;;;;;;4980449;28;20455;-63
2022/08/08 03:00:33;;;;;;;7.30;5.50;;;16.40;28.50;;;;;;5031056;28;20458;-63
2022/08/08 03:03:39;;;;;;;7.60;5.30;;;16.30;28.80;;;;;;5037960;28;20482;-63
2022/08/08 03:06:46;;;;;;;7.10;4.40;;;16.30;28.90;;;;;;4999234;28;20882;-63
2022/08/08 03:09:49;;;;;;;7.20;5.37;;;16.30;28.80;;;;;;5011587;28;20501;-65
2022/08/08 03:12:53;;;;;;;7.90;5.30;;;16.20;28.90;;;;;;5032394;28;20477;-65
2022/08/08 03:15:57;;;;;;;7.07;4.97;;;16.20;28.90;;;;;;5027777;28;20463;-63
2022/08/08 03:18:29;;;;;;;6.83;5.37;;;16.20;28.90;;;;;;5031247;28;20450;-62
2022/08/08 03:20:56;;;;;;;8.30;5.10;;;16.20;29.00;;;;;;5036131;28;20458;-64
2022/08/08 03:23:24;;;;;;;7.10;4.93;;;16.20;29.10;;;;;;5035769;28;21225;-65
2022/08/08 03:25:51;;;;;;;7.50;4.70;;;16.10;29.40;;;;;;5031647;28;21005;-62
2022/08/08 03:28:21;;;;;;;6.87;4.90;;;16.10;29.80;;;;;;5038734;28;20997;-63
2022/08/08 03:30:48;;;;;;;7.10;5.23;;;16.10;29.40;;;;;;5033391;28;21002;-63
2022/08/08 03:33:17;;;;;;;7.50;5.20;;;16.10;29.50;;;;;;5039468;28;20500;-63
2022/08/08 03:35:46;;;;;;;6.67;5.20;;;16.10;29.70;;;;;;5030189;28;21173;-62
2022/08/08 03:38:13;;;;;;;7.43;5.87;;;16.10;29.90;;;;;;5023272;28;20468;-64
2022/08/08 03:40:48;;;;;;;7.07;5.23;;;16.00;29.60;;;;;;5023461;28;20555;-64
2022/08/08 03:43:14;;;;;;;7.87;5.80;;;16.10;30.40;;;;;;5037060;28;20651;-64
2022/08/08 03:45:41;;;;;;;7.10;5.43;;;16.10;29.90;;;;;;5029656;28;20470;-63
2022/08/08 03:48:10;;;;;;;9.17;5.50;;;16.00;30.00;;;;;;5038858;28;20460;-63
2022/08/08 03:50:46;;;;;;;7.63;5.53;;;16.00;30.00;;;;;;5032358;28;20471;-64
2022/08/08 03:53:14;;;;;;;8.33;5.97;;;16.00;30.10;;;;;;5030133;28;20535;-65
2022/08/08 03:55:45;;;;;;;7.40;5.17;;;16.00;30.20;;;;;;5032628;28;20472;-64
2022/08/08 03:58:18;;;;;;;8.63;5.23;;;15.90;30.50;;;;;;5036181;28;20458;-64
2022/08/08 04:00:51;;;;;;;7.13;5.60;;;15.90;30.40;;;;;;5034938;28;20480;-62
2022/08/08 04:03:18;;;;;;;10.07;6.47;;;15.90;30.40;;;;;;5030149;28;20478;-63
2022/08/08 04:05:46;;;;;;;8.40;5.63;;;15.90;30.30;;;;;;5034137;28;20454;-63
2022/08/08 04:08:17;;;;;;;9.63;5.40;;;15.90;30.30;;;;;;5025298;28;20458;-63
2022/08/08 04:10:48;;;;;;;7.80;5.30;;;15.90;30.40;;;;;;5027442;28;20609;-63
2022/08/08 04:13:16;;;;;;;7.93;5.60;;;15.90;30.50;;;;;;5018871;28;20491;-62
2022/08/08 04:15:43;;;;;;;9.90;6.67;;;15.90;30.60;;;;;;5015934;28;20972;-61
2022/08/08 04:18:10;;;;;;;11.07;6.10;;;15.90;30.70;;;;;;5014139;28;20481;-62
2022/08/08 04:20:37;;;;;;;7.60;6.00;;;15.90;30.60;;;;;;5018269;28;20461;-61
2022/08/08 04:23:04;;;;;;;8.47;6.90;;;16.00;30.20;;;;;;5026340;28;20851;-60
2022/08/08 04:25:31;;;;;;;8.60;5.90;;;16.00;30.70;;;;;;5026948;28;20467;-62
2022/08/08 04:27:59;;;;;;;7.97;6.50;;;16.00;30.80;;;;;;5015231;28;21176;-61
2022/08/08 04:30:26;;;;;;;6.40;5.23;;;16.00;30.70;;;;;;5025744;28;20479;-64
2022/08/08 04:32:53;;;;;;;7.97;5.33;;;16.00;30.30;;;;;;5019569;28;20515;-61
2022/08/08 04:35:20;;;;;;;8.00;6.00;;;16.10;30.50;;;;;;5024960;28;20724;-62
2022/08/08 04:37:47;;;;;;;7.93;5.20;;;16.10;30.30;;;;;;5017670;28;20723;-61
2022/08/08 04:40:14;;;;;;;7.60;5.50;;;16.10;30.50;;;;;;5018075;28;20452;-61
2022/08/08 04:42:40;;;;;;;8.20;5.70;;;16.10;30.30;;;;;;5025235;28;20490;-61
2022/08/08 04:45:09;;;;;;;7.67;6.40;;;16.20;30.30;;;;;;5024008;28;20455;-62
2022/08/08 04:47:36;;;;;;;9.80;7.83;;;16.30;30.30;;;;;;5015450;28;20459;-62
2022/08/08 04:50:04;;;;;;;8.90;7.00;;;16.30;30.10;;;;;;5016543;28;20467;-62
2022/08/08 04:52:30;;;;;;;10.97;7.07;;;16.30;30.00;;;;;;5026181;28;20482;-61
2022/08/08 04:54:57;;;;;;;8.53;6.80;;;16.40;30.00;;;;;;5007158;28;20844;-63
2022/08/08 04:57:24;;;;;;;8.17;6.43;;;16.40;29.90;;;;;;5024165;28;20462;-60
2022/08/08 04:59:51;;;;;;;7.03;5.27;;;16.50;29.80;;;;;;5026884;28;20459;-61
2022/08/08 05:02:19;;;;;;;7.43;5.33;;;16.50;29.70;;;;;;5023724;28;20475;-62
2022/08/08 05:04:46;;;;;;;8.57;5.97;;;16.60;29.40;;;;;;5014194;28;20965;-62
2022/08/08 05:07:13;;;;;;;6.20;5.03;;;16.70;29.20;;;;;;5020186;28;20461;-62
2022/08/08 05:09:40;;;;;;;7.40;5.47;;;16.90;29.00;;;;;;5030752;28;20514;-62
2022/08/08 05:15:28;;;;;;;6.43;4.97;;;18.00;26.80;;;;;;5027849;28;20438;-63
2022/08/08 05:17:56;;;;;;;6.80;4.93;;;19.70;23.00;;;;;;5030375;28;20462;-61
2022/08/08 05:20:23;;;;;;;6.60;4.33;;;21.40;18.40;;;;;;5023136;28;20470;-62
2022/08/08 05:22:50;;;;;;;6.27;4.83;;;22.80;15.30;;;;;;5029214;28;20483;-61
2022/08/08 05:25:17;;;;;;;8.07;5.13;;;24.30;12.60;;;;;;5032532;28;20959;-63
2022/08/08 05:27:44;;;;;;;6.00;3.70;;;25.50;9.70;;;;;;5027150;28;20459;-61
2022/08/08 05:30:12;;;;;;;6.60;4.40;;;26.60;7.70;;;;;;5022856;28;20487;-62
2022/08/08 05:32:39;;;;;;;6.00;3.83;;;27.80;5.60;;;;;;5026683;28;20490;-63
2022/08/08 05:35:09;;;;;;;5.40;3.60;;;29.00;4.10;;;;;;5030610;28;20468;-63
2022/08/08 05:37:38;;;;;;;5.57;3.77;;;30.10;2.30;;;;;;5028497;28;20466;-63
2022/08/08 05:40:06;;;;;;;5.40;3.30;;;31.20;1.00;;;;;;5028513;28;20486;-63
2022/08/08 05:42:39;;;;;;;4.73;3.23;;;32.20;1.00;;;;;;5028846;28;20479;-64
2022/08/08 05:45:07;;;;;;;4.90;3.90;;;33.20;1.00;;;;;;5030036;28;20462;-63
2022/08/08 05:47:35;;;;;;;5.70;3.80;;;34.20;1.00;;;;;;5024765;28;20452;-63
2022/08/08 05:50:04;;;;;;;5.67;3.90;;;34.90;1.00;;;;;;5028841;28;20482;-63
2022/08/08 05:52:33;;;;;;;5.73;4.37;;;35.70;1.00;;;;;;5026158;28;20532;-65
2022/08/08 05:55:00;;;;;;;6.20;4.63;;;36.40;1.00;;;;;;5025499;28;20864;-65
2022/08/08 05:57:28;;;;;;;5.90;3.37;;;37.20;1.00;;;;;;5009215;28;20464;-66
2022/08/08 05:59:57;;;;;;;5.20;3.70;;;37.70;1.00;;;;;;5024871;28;21019;-65
2022/08/08 06:05:12;;;;;;;5.70;3.93;;;39.10;1.00;;;;;;5025510;28;20822;-64
2022/08/08 06:07:41;;;;;;;4.50;3.10;;;39.80;1.00;;;;;;5021901;28;20467;-65
2022/08/08 06:10:09;;;;;;;5.17;3.20;;;40.30;1.00;;;;;;5021056;28;20826;-64
2022/08/08 06:12:36;;;;;;;5.40;3.70;;;40.80;1.00;;;;;;5024760;28;20543;-66
2022/08/08 06:15:06;;;;;;;6.27;4.73;;;41.60;1.00;;;;;;5029788;28;20485;-65
2022/08/08 06:17:34;;;;;;;4.63;3.43;;;42.10;1.00;;;;;;5027730;28;20466;-66
2022/08/08 06:20:03;;;;;;;5.97;3.50;;;42.70;1.00;;;;;;5025389;28;20482;-65
2022/08/08 06:22:30;;;;;;;5.10;3.30;;;43.20;1.00;;;;;;5019233;28;20495;-65
2022/08/08 06:24:59;;;;;;;6.00;3.77;;;43.60;1.00;;;;;;5027320;28;20459;-65
2022/08/08 06:27:35;;;;;;;7.40;3.90;;;44.00;1.00;;;;;;5027995;28;20462;-65
2022/08/08 06:30:05;;;;;;;4.93;3.50;;;44.40;1.00;;;;;;5026579;28;20471;-65
2022/08/08 06:32:36;;;;;;;4.57;3.67;;;44.80;1.00;;;;;;5024270;28;20475;-66
2022/08/08 06:35:08;;;;;;;5.70;3.50;;;45.20;1.00;;;;;;5028631;28;20477;-66
2022/08/08 06:37:38;;;;;;;5.17;3.80;;;45.60;1.00;;;;;;5022130;28;20611;-66
2022/08/08 06:40:10;;;;;;;6.77;4.07;;;46.10;1.00;;;;;;5026133;28;20540;-65
2022/08/08 06:42:39;;;;;;;4.33;3.20;;;46.60;1.00;;;;;;5009364;28;20479;-67
2022/08/08 06:45:07;;;;;;;4.47;3.50;;;47.20;1.00;;;;;;5028352;28;20458;-66
2022/08/08 06:47:35;;;;;;;6.13;3.50;;;47.60;1.00;;;;;;5027412;28;20459;-66
2022/08/08 06:50:02;;;;;;;5.03;3.40;;;47.80;1.00;;;;;;5019738;28;20843;-66
2022/08/08 06:52:29;;;;;;;4.80;3.60;;;48.40;1.00;;;;;;5025263;28;20849;-66
2022/08/08 06:54:57;;;;;;;5.10;3.10;;;48.80;1.00;;;;;;5027132;28;20463;-66
2022/08/08 06:57:25;;;;;;;5.17;3.20;;;49.20;1.00;;;;;;5018068;28;20467;-66
2022/08/08 06:59:52;;;;;;;6.43;3.50;;;49.40;1.00;;;;;;5028591;28;21145;-66
2022/08/08 07:02:24;;;;;;;4.97;3.53;;;49.60;1.00;;;;;;5024379;28;20487;-66
2022/08/08 07:04:55;;;;;;;5.80;3.33;;;50.00;1.00;;;;;;5028453;28;20517;-66
2022/08/08 07:07:33;;;;;;;4.77;3.40;;;50.40;1.00;;;;;;5020077;28;20478;-66
2022/08/08 07:10:03;;;;;;;5.10;3.30;;;50.40;1.00;;;;;;5012891;28;20462;-66
2022/08/08 07:12:39;;;;;;;6.53;3.10;;;49.90;1.00;;;;;;5027683;28;20482;-65
2022/08/08 07:15:08;;;;;;;6.53;2.90;;;49.80;1.00;;;;;;5012726;28;20463;-65
2022/08/08 07:17:37;;;;;;;5.00;3.10;;;50.40;1.00;;;;;;5009413;28;20468;-66
2022/08/08 07:20:07;;;;;;;6.10;3.00;;;50.90;1.00;;;;;;5016334;28;20487;-66
2022/08/08 07:22:41;;;;;;;6.13;3.00;;;51.20;1.00;;;;;;5026527;28;20713;-66
2022/08/08 07:25:10;;;;;;;7.40;3.63;;;51.50;1.00;;;;;;5026275;28;20458;-65
2022/08/08 07:27:42;;;;;;;7.77;2.70;;;51.90;1.00;;;;;;5028362;28;20471;-66
2022/08/08 07:30:10;;;;;;;4.70;2.20;;;51.90;1.00;;;;;;5014143;28;21003;-67
2022/08/08 07:32:38;;;;;;;4.47;2.60;;;52.30;1.00;;;;;;5026173;28;20485;-66
2022/08/08 07:35:05;;;;;;;3.63;2.40;;;52.60;1.00;;;;;;5027820;28;20462;-65
2022/08/08 07:37:34;;;;;;;4.90;2.87;;;52.90;1.00;;;;;;5032900;28;20984;-65
2022/08/08 07:40:02;;;;;;;3.67;2.10;;;52.70;1.00;;;;;;5022777;28;20474;-67
2022/08/08 07:42:29;;;;;;;4.00;2.50;;;52.20;1.00;;;;;;5025053;28;20532;-65
2022/08/08 07:44:58;;;;;;;4.53;2.30;;;51.90;1.00;;;;;;5027131;28;20477;-67
2022/08/08 07:47:25;;;;;;;3.70;2.30;;;51.80;1.00;;;;;;5008229;28;20455;-66
2022/08/08 07:49:52;;;;;;;5.17;2.50;;;52.30;1.00;;;;;;5018703;28;20844;-66
2022/08/08 07:52:20;;;;;;;4.60;2.37;;;52.50;1.00;;;;;;5025387;28;20482;-66
2022/08/08 07:54:51;;;;;;;4.13;2.23;;;53.00;1.00;;;;;;5024547;28;20458;-67
2022/08/08 07:57:28;;;;;;;3.57;2.30;;;53.60;1.00;;;;;;5026439;28;20520;-66
2022/08/08 08:00:03;;;;;;;3.73;2.23;;;53.40;1.00;;;;;;5008146;28;20455;-66
2022/08/08 08:02:38;;;;;;;3.90;2.27;;;52.90;1.00;;;;;;5022044;28;20482;-67
2022/08/08 08:05:10;;;;;;;3.70;1.87;;;53.00;1.00;;;;;;5027576;28;20461;-67
2022/08/08 08:07:39;;;;;;;4.07;2.00;;;53.00;1.00;;;;;;5018490;28;20983;-66
2022/08/08 08:10:08;;;;;;;3.33;1.60;;;53.00;1.00;;;;;;5027334;28;20494;-67
2022/08/08 08:12:37;;;;;;;3.37;1.83;;;52.50;1.00;;;;;;5025209;28;20493;-67
2022/08/08 08:15:07;;;;;;;4.63;1.93;;;52.40;1.00;;;;;;5017711;28;20459;-67
2022/08/08 08:17:42;;;;;;;3.30;1.80;;;52.80;1.00;;;;;;5022424;28;20466;-67
2022/08/08 08:20:10;;;;;;;3.60;1.73;;;53.20;1.00;;;;;;5020561;28;20476;-66
2022/08/08 08:22:37;;;;;;;3.10;1.60;;;52.80;1.00;;;;;;5015651;28;20968;-67
2022/08/08 08:25:05;;;;;;;3.77;1.60;;;52.40;1.00;;;;;;5028020;28;20970;-67
2022/08/08 08:27:31;;;;;;;3.80;1.77;;;52.50;1.00;;;;;;5023397;28;20650;-66
2022/08/08 08:34:16;;;;;;;4.33;2.07;;;53.30;1.00;;;;;;5013655;28;20492;-67
2022/08/08 08:36:44;;;;;;;3.20;1.40;;;53.50;1.00;;;;;;5011795;28;20458;-66
2022/08/08 08:39:11;;;;;;;3.20;1.30;;;53.20;1.00;;;;;;5019983;28;20586;-67
2022/08/08 08:41:40;;;;;;;3.07;1.30;;;53.30;1.00;;;;;;5030741;28;20489;-65
2022/08/08 08:44:08;;;;;;;3.47;1.60;;;53.50;1.00;;;;;;5026146;28;20454;-66
2022/08/08 08:46:36;;;;;;;3.40;1.60;;;53.70;1.00;;;;;;5028499;28;20827;-66
2022/08/08 08:49:03;;;;;;;4.47;1.70;;;53.90;1.00;;;;;;5030606;28;20458;-66
2022/08/08 08:51:35;;;;;;;4.30;1.43;;;54.20;1.00;;;;;;5029452;28;20851;-67
2022/08/08 08:54:06;;;;;;;3.70;1.67;;;54.50;1.00;;;;;;5025679;28;20481;-67
2022/08/08 08:56:36;;;;;;;4.43;1.50;;;54.50;1.00;;;;;;5018767;28;20487;-66
2022/08/08 08:59:04;;;;;;;7.03;1.87;;;54.90;1.00;;;;;;5011155;28;20955;-66
2022/08/08 09:01:33;;;;;;;3.10;1.30;;;55.60;1.00;;;;;;5020779;28;20489;-68
2022/08/08 09:04:06;;;;;;;3.10;1.50;;;55.80;1.00;;;;;;5031278;28;20866;-66
2022/08/08 09:06:40;;;;;;;3.67;1.10;;;55.90;1.00;;;;;;5031841;28;20445;-66
2022/08/08 09:09:10;;;;;;;4.30;1.43;;;56.50;1.00;;;;;;5030811;28;20450;-68
2022/08/08 09:11:38;;;;;;;4.23;1.10;;;56.90;1.00;;;;;;5030235;28;20489;-67
2022/08/08 09:14:06;;;;;;;9.13;1.30;;;56.70;1.00;;;;;;5030967;28;20458;-67
2022/08/08 09:16:33;;;;;;;3.83;1.23;;;56.50;1.00;;;;;;5031456;28;20462;-68
2022/08/08 09:19:00;;;;;;;3.43;1.10;;;55.10;1.00;;;;;;5030911;28;20462;-66
2022/08/08 09:21:28;;;;;;;3.20;1.00;;;54.80;1.00;;;;;;5029547;28;21161;-66
2022/08/08 09:23:55;;;;;;;3.07;0.90;;;54.60;1.00;;;;;;5030423;28;20970;-66
2022/08/08 09:26:35;;;;;;;3.40;1.00;;;54.60;1.00;;;;;;5031047;28;20461;-66
2022/08/08 09:29:03;;;;;;;3.10;1.40;;;54.30;1.00;;;;;;5030870;28;20460;-65
2022/08/08 09:31:48;;;;;;;3.10;1.23;;;53.60;1.00;;;;;;5028732;28;20652;-66
2022/08/08 09:34:18;;;;;;;3.20;1.37;;;53.00;1.00;;;;;;5030912;28;20462;-65
2022/08/08 09:36:47;;;;;;;3.70;1.20;;;53.00;1.00;;;;;;5011426;28;20474;-66
2022/08/08 09:39:20;;;;;;;3.00;1.20;;;52.30;1.00;;;;;;5011615;28;20471;-66
2022/08/08 09:44:21;;;;;;;3.10;1.57;;;51.70;1.00;;;;;;5040236;22;20498;-72
2022/08/08 09:46:49;;;;;;;2.77;1.20;;;51.50;1.00;;;;;;5027846;28;20961;-71
2022/08/08 09:49:17;;;;;;;4.07;1.40;;;51.50;1.00;;;;;;5029867;28;20554;-76
2022/08/08 09:51:48;;;;;;;7.20;1.50;;;51.50;1.00;;;;;;5035416;23;20478;-68
2022/08/08 09:54:19;;;;;;;4.87;1.60;;;50.90;1.00;;;;;;5018264;23;20495;-68
2022/08/08 09:56:53;;;;;;;3.93;1.40;;;49.40;1.00;;;;;;5011439;28;20459;-74
2022/08/08 09:59:25;;;;;;;3.40;1.20;;;49.10;1.00;;;;;;5007255;28;20467;-76
2022/08/08 10:01:52;;;;;;;3.90;1.60;;;49.60;1.00;;;;;;5006664;28;20495;-73
2022/08/08 10:04:21;;;;;;;4.47;1.70;;;50.00;1.00;;;;;;4999892;28;20491;-78
2022/08/08 10:06:48;;;;;;;3.47;1.23;;;50.40;1.00;;;;;;5009040;28;20471;-78
2022/08/08 10:09:15;;;;;;;4.60;1.20;;;51.20;1.00;;;;;;5012330;28;20496;-72
2022/08/08 10:11:49;;;;;;;3.13;1.10;;;52.00;1.00;;;;;;5009534;28;20838;-74
2022/08/08 10:14:16;;;;;;;3.73;1.60;;;51.80;1.00;;;;;;5007465;28;21211;-73
2022/08/08 10:16:44;;;;;;;5.30;1.63;;;51.80;1.00;;;;;;5013718;28;20463;-72
2022/08/08 10:19:11;;;;;;;3.93;1.40;;;51.10;1.00;;;;;;5008652;28;20467;-75
2022/08/08 10:21:39;;;;;;;5.47;1.60;;;49.00;1.00;;;;;;5006127;28;20464;-71
2022/08/08 10:24:08;;;;;;;3.47;1.40;;;46.90;1.00;;;;;;5007646;28;21035;-72
2022/08/08 10:26:39;;;;;;;7.60;1.63;;;45.00;1.00;;;;;;5005074;28;20468;-70
2022/08/08 10:29:09;;;;;;;3.57;1.20;;;43.50;1.00;;;;;;5042000;22;21210;-71
2022/08/08 10:34:23;;;;;;;3.70;1.57;;;40.30;1.00;;;;;;5035758;23;20600;-74
2022/08/08 10:36:53;;;;;;;4.23;1.80;;;38.80;1.00;;;;;;5040212;23;20490;-70
2022/08/08 10:39:23;;;;;;;3.20;1.30;;;37.40;1.00;;;;;;5030922;28;20474;-72
2022/08/08 10:41:56;;;;;;;4.80;1.50;;;36.40;1.00;;;;;;5029503;23;21072;-66
2022/08/08 10:44:34;;;;;;;3.50;1.33;;;35.70;1.00;;;;;;5021089;23;21248;-71
2022/08/08 10:47:09;;;;;;;4.47;1.90;;;34.70;1.00;;;;;;5027320;28;20474;-72
2022/08/08 10:49:36;;;;;;;4.07;1.90;;;33.90;1.00;;;;;;5026217;28;20469;-71
2022/08/08 10:52:04;;;;;;;4.20;2.20;;;33.40;1.00;;;;;;5023355;28;20483;-71
2022/08/08 10:54:31;;;;;;;4.30;2.10;;;33.00;1.00;;;;;;5025967;28;20532;-74
2022/08/08 10:56:59;;;;;;;4.77;1.80;;;32.50;1.00;;;;;;5034564;28;20463;-72
2022/08/08 10:59:29;;;;;;;4.40;2.10;;;32.10;1.00;;;;;;5033450;23;20494;-56
2022/08/08 11:01:55;;;;;;;4.23;1.70;;;31.50;1.00;;;;;;5022666;28;20459;-56
2022/08/08 11:04:23;;;;;;;4.23;1.70;;;31.10;1.00;;;;;;5028039;28;20976;-56
2022/08/08 11:09:29;;;;;;;4.80;1.80;;;30.50;1.00;;;;;;5042766;23;20497;-76
2022/08/08 11:11:57;;;;;;;3.97;1.80;;;30.50;1.00;;;;;;5045402;28;20490;-74
2022/08/08 11:14:24;;;;;;;4.60;2.07;;;30.40;1.00;;;;;;5043400;28;20463;-76
2022/08/08 11:16:53;;;;;;;6.60;1.70;;;30.20;1.00;;;;;;5051146;28;20470;-73
2022/08/08 11:19:23;;;;;;;4.53;1.80;;;30.10;1.00;;;;;;5054428;28;20486;-70
2022/08/08 11:21:52;;;;;;;5.93;2.30;;;30.10;1.00;;;;;;5046850;28;20469;-74
2022/08/08 11:24:20;;;;;;;3.77;1.77;;;30.10;1.00;;;;;;5042824;23;20495;-78
2022/08/08 11:26:51;;;;;;;4.73;1.80;;;29.90;1.00;;;;;;5033118;28;20463;-79
2022/08/08 11:29:18;;;;;;;4.37;1.90;;;29.70;1.00;;;;;;5016896;28;20514;-84
2022/08/08 11:31:48;;;;;;;4.67;2.10;;;29.50;1.00;;;;;;5004370;28;20582;-81
2022/08/08 11:34:18;;;;;;;4.83;2.47;;;29.40;1.00;;;;;;5013275;23;20503;-71
2022/08/08 11:36:46;;;;;;;3.63;1.87;;;29.30;1.00;;;;;;5021371;28;20517;-75
2022/08/08 11:39:16;;;;;;;5.43;1.73;;;29.10;1.00;;;;;;5020743;28;21012;-72
2022/08/08 11:41:45;;;;;;;3.93;1.60;;;29.10;1.00;;;;;;5025959;28;20470;-70
2022/08/08 11:44:14;;;;;;;3.63;1.50;;;29.10;1.00;;;;;;5027741;28;20526;-70
2022/08/08 11:46:41;;;;;;;4.70;1.70;;;28.90;1.00;;;;;;5002350;28;20474;-71
2022/08/08 11:49:10;;;;;;;3.60;1.70;;;28.80;1.00;;;;;;5010582;28;20466;-70
2022/08/08 11:51:38;;;;;;;5.03;1.90;;;28.80;1.00;;;;;;5005074;28;21046;-70
2022/08/08 11:54:06;;;;;;;3.87;1.70;;;28.70;1.00;;;;;;5007855;28;20484;-69
2022/08/08 11:56:34;;;;;;;4.20;1.90;;;28.70;1.00;;;;;;5002563;28;20471;-70
2022/08/08 11:59:07;;;;;;;4.67;1.83;;;28.60;1.00;;;;;;5001468;28;20518;-71
2022/08/08 12:01:34;;;;;;;5.97;1.90;;;28.50;1.00;;;;;;5000487;28;20500;-69
2022/08/08 12:04:02;;;;;;;4.27;1.93;;;28.40;1.00;;;;;;5002322;28;21057;-70
2022/08/08 12:06:30;;;;;;;3.50;1.50;;;28.40;1.00;;;;;;4999064;28;20464;-70
2022/08/08 12:09:06;;;;;;;3.70;1.73;;;28.40;1.00;;;;;;4995283;28;20496;-69
2022/08/08 12:11:38;;;;;;;4.90;2.10;;;28.30;1.00;;;;;;4999009;28;21022;-70
2022/08/08 12:14:06;;;;;;;4.50;2.13;;;28.10;1.00;;;;;;4995716;28;20487;-70
2022/08/08 12:16:32;;;;;;;5.50;1.80;;;28.10;1.00;;;;;;5006279;28;20543;-70
2022/08/08 12:19:01;;;;;;;5.17;2.10;;;28.10;1.00;;;;;;5005853;28;20460;-69
2022/08/08 12:21:32;;;;;;;4.20;2.10;;;28.10;1.00;;;;;;5000808;28;20464;-75
2022/08/08 12:24:08;;;;;;;4.70;1.90;;;28.00;1.00;;;;;;5006629;28;20517;-75
2022/08/08 12:26:38;;;;;;;4.93;2.07;;;27.90;1.00;;;;;;5010265;28;20470;-74
2022/08/08 12:29:26;;;;;;;4.37;2.27;;;27.70;1.00;;;;;;5006504;28;20470;-77
2022/08/08 12:32:07;;;;;;;5.83;1.97;;;27.60;1.00;;;;;;5005296;28;20475;-69
2022/08/08 12:34:40;;;;;;;4.27;2.07;;;27.50;1.00;;;;;;4999415;28;20496;-72
2022/08/08 12:37:09;;;;;;;5.17;2.00;;;27.40;1.00;;;;;;5000048;28;20865;-72
2022/08/08 12:39:38;;;;;;;5.43;2.17;;;27.30;1.00;;;;;;5008817;28;20987;-73
2022/08/08 12:42:05;;;;;;;4.27;1.60;;;27.30;1.00;;;;;;5006400;28;20448;-72
2022/08/08 12:44:35;;;;;;;4.30;2.00;;;27.30;1.00;;;;;;5004619;28;20479;-71
2022/08/08 12:47:02;;;;;;;4.60;1.70;;;27.20;1.00;;;;;;5018253;28;20466;-73
2022/08/08 12:49:30;;;;;;;3.70;1.77;;;27.20;1.00;;;;;;5014183;28;20451;-73
2022/08/08 12:51:57;;;;;;;4.27;1.60;;;27.30;1.00;;;;;;5013370;28;20488;-72
2022/08/08 12:54:27;;;;;;;3.83;1.60;;;27.20;1.00;;;;;;5011856;28;20486;-72
2022/08/08 12:56:56;;;;;;;4.70;1.70;;;27.20;1.00;;;;;;5011030;28;20472;-74
2022/08/08 12:59:25;;;;;;;3.70;1.60;;;27.20;1.00;;;;;;5016002;28;20455;-72
2022/08/08 13:01:54;;;;;;;3.77;1.90;;;27.20;1.00;;;;;;5011421;28;20463;-72
2022/08/08 13:04:23;;;;;;;4.97;1.90;;;27.30;1.00;;;;;;5005098;28;20483;-73
2022/08/08 13:06:55;;;;;;;4.43;1.90;;;27.30;1.00;;;;;;5009317;28;20449;-72
2022/08/08 13:09:47;;;;;;;4.10;2.10;;;27.30;1.00;;;;;;5017359;28;21180;-72
2022/08/08 13:12:17;;;;;;;3.80;1.97;;;27.30;1.00;;;;;;5003535;28;20479;-72
2022/08/08 13:14:46;;;;;;;4.57;1.90;;;27.30;1.00;;;;;;5020872;28;20480;-72
2022/08/08 13:17:14;;;;;;;4.37;1.60;;;27.30;1.00;;;;;;5010145;28;20515;-74
2022/08/08 13:19:41;;;;;;;3.90;1.90;;;27.30;1.00;;;;;;5023468;28;20447;-74
2022/08/08 13:22:08;;;;;;;5.10;2.33;;;27.30;1.00;;;;;;5017020;28;20463;-73
2022/08/08 13:24:40;;;;;;;4.33;1.90;;;27.30;1.00;;;;;;5009149;28;21037;-72
2022/08/08 13:27:09;;;;;;;4.50;1.50;;;27.20;1.00;;;;;;5010541;28;20461;-72
2022/08/08 13:29:47;;;;;;;3.50;1.57;;;27.10;1.00;;;;;;5009074;28;20498;-72
2022/08/08 13:32:14;;;;;;;4.07;1.93;;;27.20;1.00;;;;;;5010974;28;20482;-72
2022/08/08 13:34:41;;;;;;;3.97;1.90;;;27.20;1.00;;;;;;5026581;28;20502;-74
2022/08/08 13:37:09;;;;;;;5.70;1.70;;;27.20;1.00;;;;;;5021616;28;20461;-72
2022/08/08 13:39:36;;;;;;;4.40;2.00;;;27.20;1.00;;;;;;5029727;28;20459;-73
2022/08/08 13:42:04;;;;;;;3.67;1.50;;;27.20;1.00;;;;;;5015021;28;20468;-73
2022/08/08 13:44:31;;;;;;;4.83;1.47;;;27.10;1.00;;;;;;5009027;28;20480;-72
2022/08/08 13:47:00;;;;;;;6.70;2.20;;;27.10;1.00;;;;;;5017008;28;20554;-72